Terminal Aerodrome Forecast
Issued by NWS

Home | Current Version | Previous Version | Text Only | Print | Product List | Glossary On
Versions: 1 2 3 4 5 6 7 8 9 10 11 12
000
FTUS45 KLKN 251700
TAFWMC
TAF
KWMC 251726Z 2518/2618 19010G28KT P6SM SCT100 BKN250
     FM251900 22020G30KT P6SM VCSH BKN060
      TEMPO 2520/2524 6SM BLDU BKN070
     FM260400 22008KT P6SM FEW100=

USA.gov is the U.S. government's official web portal to all federal, state and local government web resources and services.